sensor_id;sensor_type;location;lat;lon;timestamp;P1;durP1;ratioP1;P2;durP2;ratioP2
64609;SDS011;51019;46.090;6.350;2023-08-30T00:01:12;10.00;;;3.35;;
64609;SDS011;51019;46.090;6.350;2023-08-30T00:03:40;10.07;;;2.88;;
64609;SDS011;51019;46.090;6.350;2023-08-30T00:06:07;11.10;;;3.13;;
64609;SDS011;51019;46.090;6.350;2023-08-30T00:08:34;9.70;;;2.72;;
64609;SDS011;51019;46.090;6.350;2023-08-30T00:11:03;9.93;;;2.47;;
64609;SDS011;51019;46.090;6.350;2023-08-30T00:13:30;9.73;;;2.65;;
64609;SDS011;51019;46.090;6.350;2023-08-30T00:15:59;9.57;;;2.83;;
64609;SDS011;51019;46.090;6.350;2023-08-30T00:18:27;8.50;;;2.90;;
64609;SDS011;51019;46.090;6.350;2023-08-30T00:20:54;9.27;;;2.90;;
64609;SDS011;51019;46.090;6.350;2023-08-30T00:23:22;10.00;;;2.90;;
64609;SDS011;51019;46.090;6.350;2023-08-30T00:25:49;12.65;;;2.88;;
64609;SDS011;51019;46.090;6.350;2023-08-30T00:28:18;8.20;;;2.53;;
64609;SDS011;51019;46.090;6.350;2023-08-30T00:30:46;11.18;;;2.47;;
64609;SDS011;51019;46.090;6.350;2023-08-30T00:33:19;11.00;;;3.00;;
64609;SDS011;51019;46.090;6.350;2023-08-30T00:35:46;9.50;;;3.10;;
64609;SDS011;51019;46.090;6.350;2023-08-30T00:38:13;8.82;;;2.40;;
64609;SDS011;51019;46.090;6.350;2023-08-30T00:40:40;9.18;;;2.50;;
64609;SDS011;51019;46.090;6.350;2023-08-30T00:43:08;7.60;;;2.50;;
64609;SDS011;51019;46.090;6.350;2023-08-30T00:45:37;8.93;;;2.90;;
64609;SDS011;51019;46.090;6.350;2023-08-30T00:48:06;8.32;;;2.67;;
64609;SDS011;51019;46.090;6.350;2023-08-30T00:50:33;10.65;;;2.45;;
64609;SDS011;51019;46.090;6.350;2023-08-30T00:53:01;8.93;;;2.50;;
64609;SDS011;51019;46.090;6.350;2023-08-30T00:55:30;11.35;;;2.95;;
64609;SDS011;51019;46.090;6.350;2023-08-30T00:57:58;11.70;;;2.63;;
64609;SDS011;51019;46.090;6.350;2023-08-30T01:00:26;7.68;;;2.80;;
64609;SDS011;51019;46.090;6.350;2023-08-30T01:02:55;10.13;;;2.90;;
64609;SDS011;51019;46.090;6.350;2023-08-30T01:05:23;9.43;;;2.85;;
64609;SDS011;51019;46.090;6.350;2023-08-30T01:07:50;9.35;;;3.03;;
64609;SDS011;51019;46.090;6.350;2023-08-30T01:10:18;9.02;;;2.72;;
64609;SDS011;51019;46.090;6.350;2023-08-30T01:12:53;11.65;;;2.88;;
64609;SDS011;51019;46.090;6.350;2023-08-30T01:15:29;9.43;;;2.92;;
64609;SDS011;51019;46.090;6.350;2023-08-30T01:17:59;9.75;;;2.80;;
64609;SDS011;51019;46.090;6.350;2023-08-30T01:20:29;15.13;;;3.00;;
64609;SDS011;51019;46.090;6.350;2023-08-30T01:23:03;9.88;;;2.97;;
64609;SDS011;51019;46.090;6.350;2023-08-30T01:25:38;10.00;;;2.88;;
64609;SDS011;51019;46.090;6.350;2023-08-30T01:28:18;12.48;;;3.50;;
64609;SDS011;51019;46.090;6.350;2023-08-30T01:30:48;9.48;;;3.05;;
64609;SDS011;51019;46.090;6.350;2023-08-30T01:33:19;9.45;;;2.90;;
64609;SDS011;51019;46.090;6.350;2023-08-30T01:35:49;11.38;;;3.08;;
64609;SDS011;51019;46.090;6.350;2023-08-30T01:38:17;13.20;;;2.97;;
64609;SDS011;51019;46.090;6.350;2023-08-30T01:40:44;9.63;;;3.05;;
64609;SDS011;51019;46.090;6.350;2023-08-30T01:43:13;9.60;;;2.97;;
64609;SDS011;51019;46.090;6.350;2023-08-30T01:45:43;9.82;;;2.83;;
64609;SDS011;51019;46.090;6.350;2023-08-30T01:48:10;10.85;;;2.72;;
64609;SDS011;51019;46.090;6.350;2023-08-30T01:50:39;10.00;;;2.80;;
64609;SDS011;51019;46.090;6.350;2023-08-30T01:53:07;8.57;;;2.72;;
64609;SDS011;51019;46.090;6.350;2023-08-30T01:55:36;11.48;;;2.90;;
64609;SDS011;51019;46.090;6.350;2023-08-30T01:58:05;9.27;;;2.92;;
64609;SDS011;51019;46.090;6.350;2023-08-30T02:00:34;8.88;;;2.88;;
64609;SDS011;51019;46.090;6.350;2023-08-30T02:03:06;10.63;;;3.03;;
64609;SDS011;51019;46.090;6.350;2023-08-30T02:05:34;9.70;;;2.80;;
64609;SDS011;51019;46.090;6.350;2023-08-30T02:08:09;9.38;;;2.88;;
64609;SDS011;51019;46.090;6.350;2023-08-30T02:10:48;9.02;;;2.70;;
64609;SDS011;51019;46.090;6.350;2023-08-30T02:13:19;8.93;;;3.00;;
64609;SDS011;51019;46.090;6.350;2023-08-30T02:15:55;8.98;;;2.85;;
64609;SDS011;51019;46.090;6.350;2023-08-30T02:18:23;10.63;;;3.03;;
64609;SDS011;51019;46.090;6.350;2023-08-30T02:20:52;9.60;;;2.90;;
64609;SDS011;51019;46.090;6.350;2023-08-30T02:23:22;9.80;;;2.90;;
64609;SDS011;51019;46.090;6.350;2023-08-30T02:25:50;10.35;;;2.80;;
64609;SDS011;51019;46.090;6.350;2023-08-30T02:28:17;9.38;;;2.70;;
64609;SDS011;51019;46.090;6.350;2023-08-30T02:30:44;8.60;;;2.65;;
64609;SDS011;51019;46.090;6.350;2023-08-30T02:33:13;8.63;;;3.05;;
64609;SDS011;51019;46.090;6.350;2023-08-30T02:35:40;7.90;;;2.50;;
64609;SDS011;51019;46.090;6.350;2023-08-30T02:38:07;7.95;;;2.75;;
64609;SDS011;51019;46.090;6.350;2023-08-30T02:40:34;13.20;;;3.38;;
64609;SDS011;51019;46.090;6.350;2023-08-30T02:43:01;9.48;;;2.90;;
64609;SDS011;51019;46.090;6.350;2023-08-30T02:45:28;10.00;;;2.80;;
64609;SDS011;51019;46.090;6.350;2023-08-30T02:47:55;11.80;;;3.03;;
64609;SDS011;51019;46.090;6.350;2023-08-30T02:50:27;11.13;;;3.20;;
64609;SDS011;51019;46.090;6.350;2023-08-30T02:52:54;10.82;;;3.10;;
64609;SDS011;51019;46.090;6.350;2023-08-30T02:55:21;9.07;;;2.90;;
64609;SDS011;51019;46.090;6.350;2023-08-30T02:57:48;10.32;;;2.95;;
64609;SDS011;51019;46.090;6.350;2023-08-30T03:00:15;9.55;;;3.00;;
64609;SDS011;51019;46.090;6.350;2023-08-30T03:02:42;10.05;;;2.80;;
64609;SDS011;51019;46.090;6.350;2023-08-30T03:05:11;11.25;;;3.42;;
64609;SDS011;51019;46.090;6.350;2023-08-30T03:07:40;10.23;;;3.00;;
64609;SDS011;51019;46.090;6.350;2023-08-30T03:10:07;10.57;;;2.80;;
64609;SDS011;51019;46.090;6.350;2023-08-30T03:12:36;9.82;;;2.78;;
64609;SDS011;51019;46.090;6.350;2023-08-30T03:15:04;10.23;;;2.90;;
64609;SDS011;51019;46.090;6.350;2023-08-30T03:17:32;9.38;;;3.28;;
64609;SDS011;51019;46.090;6.350;2023-08-30T03:19:59;9.63;;;3.00;;
64609;SDS011;51019;46.090;6.350;2023-08-30T03:22:28;9.13;;;2.90;;
64609;SDS011;51019;46.090;6.350;2023-08-30T03:24:56;10.70;;;2.90;;
64609;SDS011;51019;46.090;6.350;2023-08-30T03:27:23;11.65;;;3.13;;
64609;SDS011;51019;46.090;6.350;2023-08-30T03:29:51;11.35;;;3.42;;
64609;SDS011;51019;46.090;6.350;2023-08-30T03:32:19;8.52;;;2.80;;
64609;SDS011;51019;46.090;6.350;2023-08-30T03:34:47;9.40;;;2.80;;
64609;SDS011;51019;46.090;6.350;2023-08-30T03:37:14;11.80;;;3.20;;
64609;SDS011;51019;46.090;6.350;2023-08-30T03:39:41;10.45;;;2.90;;
64609;SDS011;51019;46.090;6.350;2023-08-30T03:42:11;8.48;;;2.55;;
64609;SDS011;51019;46.090;6.350;2023-08-30T03:44:38;13.13;;;2.83;;
64609;SDS011;51019;46.090;6.350;2023-08-30T03:47:05;9.18;;;2.67;;
64609;SDS011;51019;46.090;6.350;2023-08-30T03:49:32;10.23;;;2.92;;
64609;SDS011;51019;46.090;6.350;2023-08-30T03:51:59;8.50;;;2.70;;
64609;SDS011;51019;46.090;6.350;2023-08-30T03:54:26;8.48;;;2.80;;
64609;SDS011;51019;46.090;6.350;2023-08-30T03:56:53;8.32;;;2.50;;
64609;SDS011;51019;46.090;6.350;2023-08-30T03:59:22;9.52;;;2.83;;
64609;SDS011;51019;46.090;6.350;2023-08-30T04:01:51;10.23;;;3.28;;
64609;SDS011;51019;46.090;6.350;2023-08-30T04:04:18;7.90;;;2.55;;
64609;SDS011;51019;46.090;6.350;2023-08-30T04:06:46;11.25;;;2.80;;
64609;SDS011;51019;46.090;6.350;2023-08-30T04:09:13;8.82;;;2.72;;
64609;SDS011;51019;46.090;6.350;2023-08-30T04:11:40;11.02;;;3.00;;
64609;SDS011;51019;46.090;6.350;2023-08-30T04:14:07;9.93;;;2.90;;
64609;SDS011;51019;46.090;6.350;2023-08-30T04:16:37;8.82;;;2.67;;
64609;SDS011;51019;46.090;6.350;2023-08-30T04:19:04;11.32;;;2.95;;
64609;SDS011;51019;46.090;6.350;2023-08-30T04:21:31;10.00;;;3.08;;
64609;SDS011;51019;46.090;6.350;2023-08-30T04:23:58;11.27;;;3.20;;
64609;SDS011;51019;46.090;6.350;2023-08-30T04:26:25;9.57;;;2.80;;
64609;SDS011;51019;46.090;6.350;2023-08-30T04:28:53;12.02;;;3.38;;
64609;SDS011;51019;46.090;6.350;2023-08-30T04:31:20;10.82;;;3.17;;
64609;SDS011;51019;46.090;6.350;2023-08-30T04:33:48;8.30;;;2.53;;
64609;SDS011;51019;46.090;6.350;2023-08-30T04:36:17;9.15;;;2.92;;
64609;SDS011;51019;46.090;6.350;2023-08-30T04:38:44;9.68;;;2.70;;
64609;SDS011;51019;46.090;6.350;2023-08-30T04:41:11;8.43;;;3.00;;
64609;SDS011;51019;46.090;6.350;2023-08-30T04:43:38;13.25;;;3.40;;
64609;SDS011;51019;46.090;6.350;2023-08-30T04:46:06;13.45;;;3.58;;
64609;SDS011;51019;46.090;6.350;2023-08-30T04:48:33;10.23;;;3.30;;
64609;SDS011;51019;46.090;6.350;2023-08-30T04:51:02;9.85;;;3.13;;
64609;SDS011;51019;46.090;6.350;2023-08-30T04:53:30;10.13;;;3.30;;
64609;SDS011;51019;46.090;6.350;2023-08-30T04:55:58;11.70;;;3.25;;
64609;SDS011;51019;46.090;6.350;2023-08-30T04:58:26;10.68;;;3.05;;
64609;SDS011;51019;46.090;6.350;2023-08-30T05:00:54;8.95;;;3.05;;
64609;SDS011;51019;46.090;6.350;2023-08-30T05:03:22;10.50;;;3.05;;
64609;SDS011;51019;46.090;6.350;2023-08-30T05:05:49;10.80;;;3.17;;
64609;SDS011;51019;46.090;6.350;2023-08-30T05:08:18;11.70;;;3.30;;
64609;SDS011;51019;46.090;6.350;2023-08-30T05:10:45;9.38;;;2.83;;
64609;SDS011;51019;46.090;6.350;2023-08-30T05:13:15;10.77;;;3.00;;
64609;SDS011;51019;46.090;6.350;2023-08-30T05:15:42;9.98;;;2.80;;
64609;SDS011;51019;46.090;6.350;2023-08-30T05:18:09;9.93;;;2.97;;
64609;SDS011;51019;46.090;6.350;2023-08-30T05:20:36;9.93;;;3.20;;
64609;SDS011;51019;46.090;6.350;2023-08-30T05:23:03;11.02;;;3.22;;
64609;SDS011;51019;46.090;6.350;2023-08-30T05:25:32;11.75;;;3.28;;
64609;SDS011;51019;46.090;6.350;2023-08-30T05:27:59;10.65;;;3.15;;
64609;SDS011;51019;46.090;6.350;2023-08-30T05:30:26;9.45;;;3.13;;
64609;SDS011;51019;46.090;6.350;2023-08-30T05:32:53;11.88;;;3.75;;
64609;SDS011;51019;46.090;6.350;2023-08-30T05:35:20;9.73;;;3.42;;
64609;SDS011;51019;46.090;6.350;2023-08-30T05:37:47;10.68;;;3.85;;
64609;SDS011;51019;46.090;6.350;2023-08-30T05:40:15;9.98;;;3.60;;
64609;SDS011;51019;46.090;6.350;2023-08-30T05:42:45;12.15;;;3.40;;
64609;SDS011;51019;46.090;6.350;2023-08-30T05:45:12;10.32;;;3.67;;
64609;SDS011;51019;46.090;6.350;2023-08-30T05:47:39;10.77;;;3.30;;
64609;SDS011;51019;46.090;6.350;2023-08-30T05:50:06;11.98;;;3.90;;
64609;SDS011;51019;46.090;6.350;2023-08-30T05:52:35;14.07;;;3.60;;
64609;SDS011;51019;46.090;6.350;2023-08-30T05:55:08;11.00;;;3.88;;
64609;SDS011;51019;46.090;6.350;2023-08-30T05:57:36;10.20;;;3.50;;
64609;SDS011;51019;46.090;6.350;2023-08-30T06:00:06;10.73;;;3.58;;
64609;SDS011;51019;46.090;6.350;2023-08-30T06:02:34;10.82;;;3.80;;
64609;SDS011;51019;46.090;6.350;2023-08-30T06:05:02;13.25;;;3.55;;
64609;SDS011;51019;46.090;6.350;2023-08-30T06:07:29;11.38;;;3.83;;
64609;SDS011;51019;46.090;6.350;2023-08-30T06:09:56;12.00;;;3.80;;
64609;SDS011;51019;46.090;6.350;2023-08-30T06:12:24;12.43;;;3.78;;
64609;SDS011;51019;46.090;6.350;2023-08-30T06:14:51;10.95;;;3.85;;
64609;SDS011;51019;46.090;6.350;2023-08-30T06:17:21;10.40;;;3.80;;
64609;SDS011;51019;46.090;6.350;2023-08-30T06:19:48;11.38;;;3.70;;
64609;SDS011;51019;46.090;6.350;2023-08-30T06:22:15;11.85;;;3.78;;
64609;SDS011;51019;46.090;6.350;2023-08-30T06:24:42;10.98;;;3.75;;
64609;SDS011;51019;46.090;6.350;2023-08-30T06:27:09;11.98;;;3.95;;
64609;SDS011;51019;46.090;6.350;2023-08-30T06:29:37;10.55;;;3.75;;
64609;SDS011;51019;46.090;6.350;2023-08-30T06:32:04;12.00;;;3.75;;
64609;SDS011;51019;46.090;6.350;2023-08-30T06:34:33;10.13;;;3.42;;
64609;SDS011;51019;46.090;6.350;2023-08-30T06:37:00;10.60;;;3.80;;
64609;SDS011;51019;46.090;6.350;2023-08-30T06:39:32;11.25;;;3.75;;
64609;SDS011;51019;46.090;6.350;2023-08-30T06:41:59;10.00;;;3.35;;
64609;SDS011;51019;46.090;6.350;2023-08-30T06:44:27;10.85;;;3.53;;
64609;SDS011;51019;46.090;6.350;2023-08-30T06:46:54;12.63;;;3.92;;
64609;SDS011;51019;46.090;6.350;2023-08-30T06:49:22;10.68;;;3.80;;
64609;SDS011;51019;46.090;6.350;2023-08-30T06:51:50;15.25;;;3.97;;
64609;SDS011;51019;46.090;6.350;2023-08-30T06:54:18;11.93;;;4.15;;
64609;SDS011;51019;46.090;6.350;2023-08-30T06:56:47;9.68;;;3.58;;
64609;SDS011;51019;46.090;6.350;2023-08-30T06:59:23;12.10;;;4.47;;
64609;SDS011;51019;46.090;6.350;2023-08-30T07:01:52;10.93;;;4.10;;
64609;SDS011;51019;46.090;6.350;2023-08-30T07:04:19;10.80;;;3.60;;
64609;SDS011;51019;46.090;6.350;2023-08-30T07:06:47;9.73;;;3.63;;
64609;SDS011;51019;46.090;6.350;2023-08-30T07:09:16;10.27;;;3.85;;
64609;SDS011;51019;46.090;6.350;2023-08-30T07:11:43;9.85;;;3.63;;
64609;SDS011;51019;46.090;6.350;2023-08-30T07:14:10;9.98;;;3.33;;
64609;SDS011;51019;46.090;6.350;2023-08-30T07:16:39;11.30;;;3.85;;
64609;SDS011;51019;46.090;6.350;2023-08-30T07:19:06;10.93;;;3.65;;
64609;SDS011;51019;46.090;6.350;2023-08-30T07:21:32;10.65;;;3.72;;
64609;SDS011;51019;46.090;6.350;2023-08-30T07:24:03;12.82;;;3.85;;
64609;SDS011;51019;46.090;6.350;2023-08-30T07:26:33;12.45;;;3.78;;
64609;SDS011;51019;46.090;6.350;2023-08-30T07:29:00;10.48;;;3.65;;
64609;SDS011;51019;46.090;6.350;2023-08-30T07:31:30;11.77;;;3.70;;
64609;SDS011;51019;46.090;6.350;2023-08-30T07:33:57;10.63;;;3.42;;
64609;SDS011;51019;46.090;6.350;2023-08-30T07:36:24;10.15;;;3.10;;
64609;SDS011;51019;46.090;6.350;2023-08-30T07:38:51;10.15;;;3.50;;
64609;SDS011;51019;46.090;6.350;2023-08-30T07:41:19;11.77;;;3.28;;
64609;SDS011;51019;46.090;6.350;2023-08-30T07:43:47;10.52;;;3.40;;
64609;SDS011;51019;46.090;6.350;2023-08-30T07:46:14;9.80;;;3.22;;
64609;SDS011;51019;46.090;6.350;2023-08-30T07:48:42;12.13;;;2.97;;
64609;SDS011;51019;46.090;6.350;2023-08-30T07:51:09;11.02;;;3.00;;
64609;SDS011;51019;46.090;6.350;2023-08-30T07:53:37;9.60;;;3.00;;
64609;SDS011;51019;46.090;6.350;2023-08-30T07:56:04;10.40;;;3.03;;
64609;SDS011;51019;46.090;6.350;2023-08-30T07:58:31;11.30;;;3.13;;
64609;SDS011;51019;46.090;6.350;2023-08-30T08:01:00;11.18;;;3.42;;
64609;SDS011;51019;46.090;6.350;2023-08-30T08:03:28;8.82;;;2.90;;
64609;SDS011;51019;46.090;6.350;2023-08-30T08:05:58;10.30;;;3.17;;
64609;SDS011;51019;46.090;6.350;2023-08-30T08:08:25;12.02;;;3.38;;
64609;SDS011;51019;46.090;6.350;2023-08-30T08:10:54;11.57;;;3.13;;
64609;SDS011;51019;46.090;6.350;2023-08-30T08:13:21;9.15;;;2.80;;
64609;SDS011;51019;46.090;6.350;2023-08-30T08:15:49;11.13;;;3.03;;
64609;SDS011;51019;46.090;6.350;2023-08-30T08:18:18;9.98;;;3.00;;
64609;SDS011;51019;46.090;6.350;2023-08-30T08:20:45;8.75;;;2.40;;
64609;SDS011;51019;46.090;6.350;2023-08-30T08:23:12;8.18;;;2.67;;
64609;SDS011;51019;46.090;6.350;2023-08-30T08:25:39;10.48;;;2.70;;
64609;SDS011;51019;46.090;6.350;2023-08-30T08:28:06;6.40;;;2.20;;
64609;SDS011;51019;46.090;6.350;2023-08-30T08:30:33;6.85;;;2.25;;
64609;SDS011;51019;46.090;6.350;2023-08-30T08:33:00;10.65;;;2.67;;
64609;SDS011;51019;46.090;6.350;2023-08-30T08:35:29;7.47;;;2.33;;
64609;SDS011;51019;46.090;6.350;2023-08-30T08:37:56;10.55;;;2.33;;
64609;SDS011;51019;46.090;6.350;2023-08-30T08:40:23;8.73;;;2.42;;
64609;SDS011;51019;46.090;6.350;2023-08-30T08:42:50;9.07;;;2.65;;
64609;SDS011;51019;46.090;6.350;2023-08-30T08:45:20;8.98;;;2.72;;
64609;SDS011;51019;46.090;6.350;2023-08-30T08:47:48;10.60;;;2.50;;
64609;SDS011;51019;46.090;6.350;2023-08-30T08:50:16;9.27;;;2.90;;
64609;SDS011;51019;46.090;6.350;2023-08-30T08:52:46;8.93;;;2.80;;
64609;SDS011;51019;46.090;6.350;2023-08-30T08:55:13;9.35;;;3.13;;
64609;SDS011;51019;46.090;6.350;2023-08-30T08:57:41;10.75;;;3.30;;
64609;SDS011;51019;46.090;6.350;2023-08-30T09:00:10;8.98;;;2.92;;
64609;SDS011;51019;46.090;6.350;2023-08-30T09:02:38;10.25;;;2.92;;
64609;SDS011;51019;46.090;6.350;2023-08-30T09:05:08;9.48;;;2.88;;
64609;SDS011;51019;46.090;6.350;2023-08-30T09:07:40;9.15;;;2.90;;
64609;SDS011;51019;46.090;6.350;2023-08-30T09:10:10;9.10;;;2.80;;
64609;SDS011;51019;46.090;6.350;2023-08-30T09:12:43;9.43;;;2.67;;
64609;SDS011;51019;46.090;6.350;2023-08-30T09:15:10;9.18;;;2.72;;
64609;SDS011;51019;46.090;6.350;2023-08-30T09:17:38;7.35;;;2.50;;
64609;SDS011;51019;46.090;6.350;2023-08-30T09:20:08;11.90;;;2.70;;
64609;SDS011;51019;46.090;6.350;2023-08-30T09:22:36;7.55;;;2.35;;
64609;SDS011;51019;46.090;6.350;2023-08-30T09:25:04;9.68;;;2.65;;
64609;SDS011;51019;46.090;6.350;2023-08-30T09:27:33;8.50;;;2.58;;
64609;SDS011;51019;46.090;6.350;2023-08-30T09:30:03;7.18;;;2.20;;
64609;SDS011;51019;46.090;6.350;2023-08-30T09:32:37;8.30;;;2.40;;
64609;SDS011;51019;46.090;6.350;2023-08-30T09:35:05;7.32;;;2.42;;
64609;SDS011;51019;46.090;6.350;2023-08-30T09:37:33;9.82;;;2.90;;
64609;SDS011;51019;46.090;6.350;2023-08-30T09:40:00;8.80;;;2.60;;
64609;SDS011;51019;46.090;6.350;2023-08-30T09:42:28;6.95;;;2.20;;
64609;SDS011;51019;46.090;6.350;2023-08-30T09:44:57;7.90;;;2.40;;
64609;SDS011;51019;46.090;6.350;2023-08-30T09:47:24;8.15;;;2.42;;
64609;SDS011;51019;46.090;6.350;2023-08-30T09:49:54;8.02;;;2.47;;
64609;SDS011;51019;46.090;6.350;2023-08-30T09:52:23;7.82;;;2.38;;
64609;SDS011;51019;46.090;6.350;2023-08-30T09:54:51;7.65;;;2.53;;
64609;SDS011;51019;46.090;6.350;2023-08-30T09:57:19;7.43;;;2.20;;
64609;SDS011;51019;46.090;6.350;2023-08-30T09:59:48;7.78;;;2.60;;
64609;SDS011;51019;46.090;6.350;2023-08-30T10:02:17;7.00;;;2.25;;
64609;SDS011;51019;46.090;6.350;2023-08-30T10:04:47;8.07;;;2.60;;
64609;SDS011;51019;46.090;6.350;2023-08-30T10:07:16;13.77;;;2.78;;
64609;SDS011;51019;46.090;6.350;2023-08-30T10:09:45;11.38;;;2.40;;
64609;SDS011;51019;46.090;6.350;2023-08-30T10:12:12;8.00;;;2.70;;
64609;SDS011;51019;46.090;6.350;2023-08-30T10:14:39;8.85;;;2.75;;
64609;SDS011;51019;46.090;6.350;2023-08-30T10:17:06;8.88;;;2.42;;
64609;SDS011;51019;46.090;6.350;2023-08-30T10:19:40;7.90;;;2.60;;
64609;SDS011;51019;46.090;6.350;2023-08-30T10:22:10;8.73;;;2.60;;
64609;SDS011;51019;46.090;6.350;2023-08-30T10:24:41;7.93;;;2.30;;
64609;SDS011;51019;46.090;6.350;2023-08-30T10:27:19;8.95;;;2.70;;
64609;SDS011;51019;46.090;6.350;2023-08-30T10:29:48;7.78;;;2.63;;
64609;SDS011;51019;46.090;6.350;2023-08-30T10:32:18;7.03;;;2.45;;
64609;SDS011;51019;46.090;6.350;2023-08-30T10:34:47;6.75;;;2.38;;
64609;SDS011;51019;46.090;6.350;2023-08-30T10:37:14;8.98;;;2.72;;
64609;SDS011;51019;46.090;6.350;2023-08-30T10:39:42;7.13;;;2.47;;
64609;SDS011;51019;46.090;6.350;2023-08-30T10:42:10;7.95;;;2.40;;
64609;SDS011;51019;46.090;6.350;2023-08-30T10:44:47;6.28;;;2.20;;
64609;SDS011;51019;46.090;6.350;2023-08-30T10:47:18;5.68;;;2.28;;
64609;SDS011;51019;46.090;6.350;2023-08-30T10:52:31;10.88;;;3.08;;
64609;SDS011;51019;46.090;6.350;2023-08-30T10:55:05;7.65;;;2.67;;
64609;SDS011;51019;46.090;6.350;2023-08-30T10:57:33;9.48;;;3.13;;
64609;SDS011;51019;46.090;6.350;2023-08-30T11:00:04;8.93;;;2.72;;
64609;SDS011;51019;46.090;6.350;2023-08-30T11:02:35;9.15;;;2.97;;
64609;SDS011;51019;46.090;6.350;2023-08-30T11:05:05;8.23;;;2.75;;
64609;SDS011;51019;46.090;6.350;2023-08-30T11:07:33;8.65;;;2.90;;
64609;SDS011;51019;46.090;6.350;2023-08-30T11:10:00;10.10;;;2.92;;
64609;SDS011;51019;46.090;6.350;2023-08-30T11:12:28;11.70;;;3.03;;
64609;SDS011;51019;46.090;6.350;2023-08-30T11:14:56;9.40;;;2.80;;
64609;SDS011;51019;46.090;6.350;2023-08-30T11:17:23;8.50;;;2.55;;
64609;SDS011;51019;46.090;6.350;2023-08-30T11:19:50;9.27;;;2.50;;
64609;SDS011;51019;46.090;6.350;2023-08-30T11:22:25;7.68;;;2.20;;
64609;SDS011;51019;46.090;6.350;2023-08-30T11:24:52;6.90;;;2.22;;
64609;SDS011;51019;46.090;6.350;2023-08-30T11:27:19;7.60;;;2.25;;
64609;SDS011;51019;46.090;6.350;2023-08-30T11:29:46;7.32;;;2.40;;
64609;SDS011;51019;46.090;6.350;2023-08-30T11:32:13;7.40;;;2.30;;
64609;SDS011;51019;46.090;6.350;2023-08-30T11:34:40;7.57;;;2.40;;
64609;SDS011;51019;46.090;6.350;2023-08-30T11:37:07;8.63;;;2.28;;
64609;SDS011;51019;46.090;6.350;2023-08-30T11:39:36;7.05;;;2.42;;
64609;SDS011;51019;46.090;6.350;2023-08-30T11:42:04;6.68;;;2.17;;
64609;SDS011;51019;46.090;6.350;2023-08-30T11:44:31;7.63;;;2.33;;
64609;SDS011;51019;46.090;6.350;2023-08-30T11:46:59;6.43;;;2.10;;
64609;SDS011;51019;46.090;6.350;2023-08-30T11:49:26;8.40;;;2.38;;
64609;SDS011;51019;46.090;6.350;2023-08-30T11:51:54;8.35;;;2.58;;
64609;SDS011;51019;46.090;6.350;2023-08-30T11:54:23;8.32;;;2.42;;
64609;SDS011;51019;46.090;6.350;2023-08-30T11:56:52;7.80;;;2.10;;
64609;SDS011;51019;46.090;6.350;2023-08-30T11:59:19;8.70;;;2.63;;
64609;SDS011;51019;46.090;6.350;2023-08-30T12:01:47;10.10;;;2.65;;
64609;SDS011;51019;46.090;6.350;2023-08-30T12:04:15;7.88;;;2.58;;
64609;SDS011;51019;46.090;6.350;2023-08-30T12:06:44;6.70;;;1.98;;
64609;SDS011;51019;46.090;6.350;2023-08-30T12:09:17;6.75;;;2.10;;
64609;SDS011;51019;46.090;6.350;2023-08-30T12:11:47;5.68;;;1.90;;
64609;SDS011;51019;46.090;6.350;2023-08-30T12:14:15;7.72;;;2.20;;
64609;SDS011;51019;46.090;6.350;2023-08-30T12:16:42;6.43;;;2.00;;
64609;SDS011;51019;46.090;6.350;2023-08-30T12:19:11;7.53;;;2.25;;
64609;SDS011;51019;46.090;6.350;2023-08-30T12:21:39;7.45;;;2.22;;
64609;SDS011;51019;46.090;6.350;2023-08-30T12:24:07;8.88;;;2.03;;
64609;SDS011;51019;46.090;6.350;2023-08-30T12:26:35;8.27;;;2.60;;
64609;SDS011;51019;46.090;6.350;2023-08-30T12:29:03;7.75;;;2.40;;
64609;SDS011;51019;46.090;6.350;2023-08-30T12:31:33;6.57;;;2.13;;
64609;SDS011;51019;46.090;6.350;2023-08-30T12:34:00;6.20;;;2.10;;
64609;SDS011;51019;46.090;6.350;2023-08-30T12:36:27;6.50;;;1.92;;
64609;SDS011;51019;46.090;6.350;2023-08-30T12:38:54;5.63;;;1.88;;
64609;SDS011;51019;46.090;6.350;2023-08-30T12:41:22;6.03;;;1.90;;
64609;SDS011;51019;46.090;6.350;2023-08-30T12:43:49;6.60;;;2.08;;
64609;SDS011;51019;46.090;6.350;2023-08-30T12:46:17;7.07;;;2.03;;
64609;SDS011;51019;46.090;6.350;2023-08-30T12:48:46;7.32;;;1.98;;
64609;SDS011;51019;46.090;6.350;2023-08-30T12:51:13;5.43;;;1.77;;
64609;SDS011;51019;46.090;6.350;2023-08-30T12:53:40;5.72;;;1.70;;
64609;SDS011;51019;46.090;6.350;2023-08-30T12:56:07;10.10;;;2.10;;
64609;SDS011;51019;46.090;6.350;2023-08-30T12:58:34;6.30;;;1.88;;
64609;SDS011;51019;46.090;6.350;2023-08-30T13:01:01;9.00;;;1.90;;
64609;SDS011;51019;46.090;6.350;2023-08-30T13:03:29;8.65;;;1.98;;
64609;SDS011;51019;46.090;6.350;2023-08-30T13:05:58;6.40;;;2.00;;
64609;SDS011;51019;46.090;6.350;2023-08-30T13:08:26;6.90;;;2.10;;
64609;SDS011;51019;46.090;6.350;2023-08-30T13:10:53;6.35;;;2.05;;
64609;SDS011;51019;46.090;6.350;2023-08-30T13:13:20;5.88;;;1.90;;
64609;SDS011;51019;46.090;6.350;2023-08-30T13:15:48;6.38;;;1.98;;
64609;SDS011;51019;46.090;6.350;2023-08-30T13:18:14;7.95;;;2.08;;
64609;SDS011;51019;46.090;6.350;2023-08-30T13:20:42;7.00;;;2.00;;
64609;SDS011;51019;46.090;6.350;2023-08-30T13:23:11;7.10;;;2.10;;
64609;SDS011;51019;46.090;6.350;2023-08-30T13:25:39;5.43;;;1.80;;
64609;SDS011;51019;46.090;6.350;2023-08-30T13:28:06;7.13;;;2.08;;
64609;SDS011;51019;46.090;6.350;2023-08-30T13:30:34;8.10;;;2.20;;
64609;SDS011;51019;46.090;6.350;2023-08-30T13:33:00;5.65;;;1.95;;
64609;SDS011;51019;46.090;6.350;2023-08-30T13:35:27;6.53;;;2.08;;
64609;SDS011;51019;46.090;6.350;2023-08-30T13:37:54;6.50;;;1.98;;
64609;SDS011;51019;46.090;6.350;2023-08-30T13:40:23;6.05;;;2.10;;
64609;SDS011;51019;46.090;6.350;2023-08-30T13:42:50;5.20;;;1.83;;
64609;SDS011;51019;46.090;6.350;2023-08-30T13:45:17;6.65;;;2.15;;
64609;SDS011;51019;46.090;6.350;2023-08-30T13:47:44;9.15;;;2.20;;
64609;SDS011;51019;46.090;6.350;2023-08-30T13:50:12;7.50;;;2.15;;
64609;SDS011;51019;46.090;6.350;2023-08-30T13:52:39;5.38;;;1.90;;
64609;SDS011;51019;46.090;6.350;2023-08-30T13:55:06;6.40;;;1.85;;
64609;SDS011;51019;46.090;6.350;2023-08-30T13:57:35;5.65;;;1.92;;
64609;SDS011;51019;46.090;6.350;2023-08-30T14:00:03;6.93;;;2.03;;
64609;SDS011;51019;46.090;6.350;2023-08-30T14:02:33;6.97;;;1.80;;
64609;SDS011;51019;46.090;6.350;2023-08-30T14:05:00;4.15;;;1.65;;
64609;SDS011;51019;46.090;6.350;2023-08-30T14:07:27;5.97;;;2.00;;
64609;SDS011;51019;46.090;6.350;2023-08-30T14:09:54;5.40;;;1.95;;
64609;SDS011;51019;46.090;6.350;2023-08-30T14:12:23;6.55;;;2.13;;
64609;SDS011;51019;46.090;6.350;2023-08-30T14:14:52;5.90;;;1.80;;
64609;SDS011;51019;46.090;6.350;2023-08-30T14:17:19;6.40;;;1.98;;
64609;SDS011;51019;46.090;6.350;2023-08-30T14:19:46;7.75;;;2.20;;
64609;SDS011;51019;46.090;6.350;2023-08-30T14:22:14;8.95;;;2.17;;
64609;SDS011;51019;46.090;6.350;2023-08-30T14:24:41;6.43;;;2.00;;
64609;SDS011;51019;46.090;6.350;2023-08-30T14:27:08;6.30;;;1.80;;
64609;SDS011;51019;46.090;6.350;2023-08-30T14:29:35;6.22;;;2.10;;
64609;SDS011;51019;46.090;6.350;2023-08-30T14:32:05;6.53;;;1.80;;
64609;SDS011;51019;46.090;6.350;2023-08-30T14:34:32;5.30;;;1.80;;
64609;SDS011;51019;46.090;6.350;2023-08-30T14:36:59;6.55;;;2.00;;
64609;SDS011;51019;46.090;6.350;2023-08-30T14:39:27;7.43;;;2.20;;
64609;SDS011;51019;46.090;6.350;2023-08-30T14:41:54;8.00;;;2.20;;
64609;SDS011;51019;46.090;6.350;2023-08-30T14:44:21;5.75;;;2.05;;
64609;SDS011;51019;46.090;6.350;2023-08-30T14:46:50;6.65;;;2.10;;
64609;SDS011;51019;46.090;6.350;2023-08-30T14:49:19;6.07;;;2.13;;
64609;SDS011;51019;46.090;6.350;2023-08-30T14:51:46;6.13;;;1.88;;